FXMM/MSU METAR and TAF weather

Enter ICAO airport designator
Station Type Date Time Source
FXMM METAR 2018/01/21 08:00 UTC NOAA

FXMM 210800Z 36006KT 9999 FEW030 23/12 Q1022 NOSIG


Station Type Date Time Source
FXMM Decoded METAR 2018/01/21 08:00 UTC NOAA

Maseru / Moshoeshoe, Lesotho (FXMM) 29-27S 027-33E
Jan 21, 2018 - 03:00 AM EST / 2018.01.21 0800 UTC
Wind: from the N (360 degrees) at 7 MPH (6 KT):0
Visibility: greater than 7 mile(s):0
Sky conditions: mostly clear
Temperature: 73 F (23 C)
Dew Point: 53 F (12 C)
Relative Humidity: 49%
Pressure (altimeter): 30.18 in. Hg (1022 hPa)
ob: FXMM 210800Z 36006KT 9999 FEW030 23/12 Q1022 NOSIG
cycle: 8

Station Type Date Time Source
FXMM TAF 2018/01/14 12:12 UTC NOAA

TAF FXMM 140900Z 1412/1512 28004KT 9999 FEW040
BECMG 1412/1414 36004KT SCT035
FM141500 30005KT BKN035 FEW040TCU PROB30
TEMPO 1418/1420 36008KT TS BKN030 FEW040CB
FM152100 00000 FEW035
BECMG 1506/1508 36010KT SCT035


Example: see airport list